createdAt,value
2022-10-09T00:01:14.227Z,7.10
2022-10-09T00:03:44.102Z,7.10
2022-10-09T00:06:17.685Z,7.20
2022-10-09T00:08:45.876Z,7.10
2022-10-09T00:11:16.303Z,7.10
2022-10-09T00:13:44.661Z,7.10
2022-10-09T00:16:15.453Z,7.10
2022-10-09T00:18:44.073Z,7.20
2022-10-09T00:21:21.903Z,7.10
2022-10-09T00:23:50.603Z,7.10
2022-10-09T00:26:18.969Z,7.00
2022-10-09T00:28:47.632Z,7.00
2022-10-09T00:31:17.849Z,7.00
2022-10-09T00:33:46.282Z,7.00
2022-10-09T00:36:16.347Z,7.00
2022-10-09T00:38:44.588Z,7.10
2022-10-09T00:41:16.554Z,7.20
2022-10-09T00:43:47.636Z,7.20
2022-10-09T00:46:34.764Z,7.20
2022-10-09T00:49:10.284Z,7.30
2022-10-09T00:51:38.735Z,7.50
2022-10-09T00:54:10.068Z,7.60
2022-10-09T00:56:38.223Z,7.70
2022-10-09T00:59:07.114Z,7.60
2022-10-09T01:01:36.605Z,7.60
2022-10-09T01:04:04.606Z,7.70
2022-10-09T01:06:46.850Z,7.80
2022-10-09T01:09:16.748Z,7.80
2022-10-09T01:11:52.888Z,8.00
2022-10-09T01:14:27.033Z,8.00
2022-10-09T01:17:03.694Z,8.00
2022-10-09T01:20:02.984Z,8.00
2022-10-09T01:22:42.021Z,8.10
2022-10-09T01:25:12.433Z,8.10
2022-10-09T01:27:42.405Z,8.30
2022-10-09T01:30:13.184Z,8.40
2022-10-09T01:32:44.602Z,8.30
2022-10-09T01:35:14.097Z,8.10
2022-10-09T01:37:45.377Z,8.00
2022-10-09T01:40:15.787Z,8.00
2022-10-09T01:42:47.099Z,7.90
2022-10-09T01:45:16.168Z,7.90
2022-10-09T01:47:44.430Z,7.80
2022-10-09T01:50:18.698Z,7.80
2022-10-09T01:52:50.904Z,7.90
2022-10-09T01:55:31.543Z,7.80
2022-10-09T01:58:07.494Z,7.70
2022-10-09T02:00:39.132Z,7.60
2022-10-09T02:03:12.323Z,7.60
2022-10-09T02:05:43.469Z,7.60
2022-10-09T02:08:17.384Z,7.70
2022-10-09T02:10:48.162Z,7.70
2022-10-09T02:13:18.494Z,7.60
2022-10-09T02:15:50.171Z,7.70
2022-10-09T02:18:26.737Z,7.70
2022-10-09T02:21:00.346Z,7.80
2022-10-09T02:23:29.930Z,7.90
2022-10-09T02:25:58.477Z,8.00
2022-10-09T02:28:27.973Z,8.10
2022-10-09T02:31:00.141Z,8.20
2022-10-09T02:33:31.401Z,8.30
2022-10-09T02:35:59.451Z,8.40
2022-10-09T02:38:27.624Z,8.50
2022-10-09T02:40:59.066Z,8.60
2022-10-09T02:43:28.546Z,8.50
2022-10-09T02:45:56.486Z,8.50
2022-10-09T02:48:24.510Z,8.50
2022-10-09T02:50:52.514Z,8.40
2022-10-09T02:53:20.466Z,8.40
2022-10-09T02:55:48.450Z,8.50
2022-10-09T02:58:16.403Z,8.60
2022-10-09T03:00:49.442Z,8.60
2022-10-09T03:03:17.466Z,8.60
2022-10-09T03:05:45.400Z,8.80
2022-10-09T03:08:13.369Z,8.80
2022-10-09T03:10:42.174Z,9.00
2022-10-09T03:13:10.591Z,9.00
2022-10-09T03:15:38.791Z,9.00
2022-10-09T03:18:08.217Z,9.10
2022-10-09T03:20:36.234Z,9.20
2022-10-09T03:23:04.193Z,9.20
2022-10-09T03:25:32.503Z,9.30
2022-10-09T03:28:00.543Z,9.20
2022-10-09T03:30:28.594Z,9.10
2022-10-09T03:32:56.546Z,8.90
2022-10-09T03:35:25.931Z,8.80
2022-10-09T03:37:53.845Z,8.60
2022-10-09T03:40:21.843Z,8.40
2022-10-09T03:42:50.098Z,8.20
2022-10-09T03:45:18.367Z,8.10
2022-10-09T03:47:46.332Z,8.10
2022-10-09T03:50:14.356Z,8.10
2022-10-09T03:52:43.705Z,8.00
2022-10-09T03:55:11.700Z,7.90
2022-10-09T03:57:39.690Z,8.00
2022-10-09T04:00:09.087Z,8.30
2022-10-09T04:02:37.203Z,8.40
2022-10-09T04:05:05.825Z,8.40
2022-10-09T04:07:34.494Z,8.30
2022-10-09T04:10:05.844Z,8.40
2022-10-09T04:12:33.934Z,8.30
2022-10-09T04:15:01.940Z,8.20
2022-10-09T04:17:29.994Z,8.20
2022-10-09T04:19:58.044Z,8.30
2022-10-09T04:22:26.258Z,8.20
2022-10-09T04:24:54.213Z,8.20
2022-10-09T04:27:23.554Z,8.10
2022-10-09T04:29:51.468Z,8.10
2022-10-09T04:32:19.498Z,8.20
2022-10-09T04:34:47.511Z,8.20
2022-10-09T04:37:15.463Z,8.10
2022-10-09T04:39:43.446Z,8.20
2022-10-09T04:42:11.431Z,8.30
2022-10-09T04:44:40.815Z,8.30
2022-10-09T04:47:11.260Z,8.20
2022-10-09T04:49:39.787Z,8.10
2022-10-09T04:52:07.870Z,8.10
2022-10-09T04:54:35.875Z,8.00
2022-10-09T04:57:03.903Z,8.00
2022-10-09T04:59:31.988Z,8.00
2022-10-09T05:02:01.379Z,7.90
2022-10-09T05:04:29.403Z,7.80
2022-10-09T05:06:57.429Z,7.70
2022-10-09T05:09:25.474Z,7.90
2022-10-09T05:11:53.469Z,8.00
2022-10-09T05:14:21.423Z,8.00
2022-10-09T05:17:12.482Z,8.20
2022-10-09T05:19:42.143Z,8.20
2022-10-09T05:22:10.097Z,8.10
2022-10-09T05:24:38.186Z,8.10
2022-10-09T05:27:06.162Z,8.00
2022-10-09T05:29:34.278Z,8.00
2022-10-09T05:32:02.394Z,7.80
2022-10-09T05:34:30.383Z,7.70
2022-10-09T05:36:59.756Z,7.30
2022-10-09T05:39:27.841Z,7.10
2022-10-09T05:41:55.917Z,6.90
2022-10-09T05:44:24.000Z,6.80
2022-10-09T05:46:51.945Z,7.10
2022-10-09T05:49:19.999Z,7.50
2022-10-09T05:51:50.875Z,7.60
2022-10-09T05:54:20.338Z,7.70
2022-10-09T05:56:48.604Z,7.90
2022-10-09T05:59:19.646Z,8.40
2022-10-09T06:01:50.229Z,8.50
2022-10-09T06:04:20.611Z,8.40
2022-10-09T06:06:49.552Z,8.50
2022-10-09T06:09:22.239Z,8.40
2022-10-09T06:11:50.918Z,8.40
2022-10-09T06:14:22.188Z,8.30
2022-10-09T06:16:50.665Z,8.30
2022-10-09T06:19:19.834Z,8.10
2022-10-09T06:21:49.252Z,8.20
2022-10-09T06:24:26.962Z,8.20
2022-10-09T06:26:56.945Z,8.40
2022-10-09T06:29:25.000Z,8.50
2022-10-09T06:31:53.190Z,8.50
2022-10-09T06:34:21.626Z,8.50
2022-10-09T06:36:50.106Z,8.50
2022-10-09T06:39:19.913Z,8.40
2022-10-09T06:41:47.982Z,8.60
2022-10-09T06:44:17.341Z,8.80
2022-10-09T06:46:46.619Z,8.80
2022-10-09T06:49:14.685Z,8.80
2022-10-09T06:51:42.623Z,8.90
2022-10-09T06:54:13.976Z,9.00
2022-10-09T06:56:43.451Z,9.10
2022-10-09T06:59:12.163Z,9.20
2022-10-09T07:01:40.386Z,9.30
2022-10-09T07:04:11.770Z,9.40
2022-10-09T07:06:41.960Z,9.60
2022-10-09T07:09:19.944Z,9.70
2022-10-09T07:11:58.153Z,9.70
2022-10-09T07:14:26.126Z,9.60
2022-10-09T07:17:01.051Z,9.60
2022-10-09T07:19:28.991Z,9.70
2022-10-09T07:21:59.643Z,9.80
2022-10-09T07:24:27.668Z,9.80
2022-10-09T07:26:57.422Z,9.80
2022-10-09T07:29:25.370Z,9.80
2022-10-09T07:31:53.394Z,9.80
2022-10-09T07:34:21.593Z,9.80
2022-10-09T07:36:49.586Z,9.90
2022-10-09T07:39:19.610Z,10.00
2022-10-09T07:41:47.837Z,10.00
2022-10-09T07:44:17.956Z,10.00
2022-10-09T07:46:46.397Z,10.00
2022-10-09T07:49:14.350Z,10.00
2022-10-09T07:51:42.294Z,10.10
2022-10-09T07:54:10.359Z,10.20
2022-10-09T07:56:40.822Z,10.20
2022-10-09T07:59:13.476Z,10.30
2022-10-09T08:01:46.051Z,10.40
2022-10-09T08:04:14.123Z,10.50
2022-10-09T08:06:42.058Z,10.70
2022-10-09T08:09:10.279Z,10.90
2022-10-09T08:11:40.621Z,11.00
2022-10-09T08:14:16.605Z,11.20
2022-10-09T08:16:50.749Z,11.30
2022-10-09T08:19:18.760Z,11.30
2022-10-09T08:21:58.142Z,11.40
2022-10-09T08:24:32.841Z,11.50
2022-10-09T08:27:01.048Z,11.60
2022-10-09T08:29:29.078Z,11.60
2022-10-09T08:32:01.626Z,11.70
2022-10-09T08:34:32.684Z,11.80
2022-10-09T08:37:00.792Z,11.90
2022-10-09T08:39:30.930Z,11.90
2022-10-09T08:42:03.574Z,11.90
2022-10-09T08:44:39.339Z,12.00
2022-10-09T08:47:14.588Z,12.10
2022-10-09T08:49:51.859Z,12.10
2022-10-09T08:52:34.472Z,12.10
2022-10-09T08:55:12.005Z,12.20
2022-10-09T08:57:40.984Z,12.30
2022-10-09T09:00:16.399Z,12.40
2022-10-09T09:03:20.857Z,12.50
2022-10-09T09:05:56.489Z,12.50
2022-10-09T09:08:32.692Z,12.60
2022-10-09T09:11:18.176Z,12.60
2022-10-09T09:13:58.200Z,12.70
2022-10-09T09:16:32.412Z,12.80
2022-10-09T09:19:23.137Z,12.90
2022-10-09T09:21:52.640Z,13.00
2022-10-09T09:24:23.256Z,13.10
2022-10-09T09:26:56.247Z,13.10
2022-10-09T09:29:24.934Z,13.00
2022-10-09T09:31:56.640Z,13.00
2022-10-09T09:34:31.091Z,13.10
2022-10-09T09:37:00.066Z,13.10
2022-10-09T09:42:20.065Z,13.30
2022-10-09T09:44:57.229Z,13.20
2022-10-09T09:47:31.140Z,13.30
2022-10-09T09:50:02.322Z,13.30
2022-10-09T09:52:33.243Z,13.40
2022-10-09T09:55:01.455Z,13.40
2022-10-09T09:57:34.068Z,13.50
2022-10-09T10:00:11.441Z,13.60
2022-10-09T10:02:39.413Z,13.60
2022-10-09T10:05:21.815Z,13.60
2022-10-09T10:07:51.575Z,13.60
2022-10-09T10:10:25.607Z,13.60
2022-10-09T10:12:57.283Z,13.60
2022-10-09T10:15:27.444Z,13.70
2022-10-09T10:18:03.607Z,13.80
2022-10-09T10:20:34.987Z,13.80
2022-10-09T10:23:03.027Z,14.00
2022-10-09T10:25:34.659Z,14.00
2022-10-09T10:28:12.109Z,14.10
2022-10-09T10:30:40.859Z,14.00
2022-10-09T10:33:18.620Z,14.00
2022-10-09T10:35:52.125Z,14.10
2022-10-09T10:38:25.729Z,14.00
2022-10-09T10:40:57.914Z,14.00
2022-10-09T10:43:34.347Z,14.10
2022-10-09T10:46:12.186Z,14.10
2022-10-09T10:48:42.900Z,14.20
2022-10-09T10:51:32.160Z,14.10
2022-10-09T10:54:11.877Z,14.10
2022-10-09T10:56:43.720Z,14.20
2022-10-09T10:59:27.775Z,14.30
2022-10-09T11:02:12.087Z,14.30
2022-10-09T11:04:48.455Z,14.40
2022-10-09T11:07:30.053Z,14.40
2022-10-09T11:10:07.573Z,14.50
2022-10-09T11:12:57.798Z,14.50
2022-10-09T11:15:37.742Z,14.60
2022-10-09T11:18:18.994Z,14.40
2022-10-09T11:21:19.316Z,14.50
2022-10-09T11:24:09.637Z,14.70
2022-10-09T11:26:44.312Z,14.80
2022-10-09T11:29:18.434Z,14.80
2022-10-09T11:31:51.124Z,14.80
2022-10-09T11:34:25.520Z,14.90
2022-10-09T11:36:54.343Z,15.00
2022-10-09T11:39:27.141Z,15.10
2022-10-09T11:41:56.831Z,15.10
2022-10-09T11:44:37.157Z,15.10
2022-10-09T11:47:11.680Z,15.10
2022-10-09T11:49:59.070Z,15.10
2022-10-09T11:52:37.379Z,15.10
2022-10-09T11:55:20.963Z,15.00
2022-10-09T11:57:51.206Z,15.00
2022-10-09T12:00:31.270Z,15.00
2022-10-09T12:03:02.545Z,14.90
2022-10-09T12:05:41.215Z,15.00
2022-10-09T12:08:15.425Z,15.10
2022-10-09T12:10:54.281Z,15.30
2022-10-09T12:13:32.775Z,15.40
2022-10-09T12:16:01.315Z,15.50
2022-10-09T12:18:32.268Z,15.60
2022-10-09T12:21:03.471Z,15.60
2022-10-09T12:23:36.050Z,15.70
2022-10-09T12:26:06.788Z,15.70
2022-10-09T12:28:39.496Z,15.70
2022-10-09T12:31:18.453Z,15.70
2022-10-09T12:33:50.435Z,15.60
2022-10-09T12:36:25.678Z,15.50
2022-10-09T12:38:53.679Z,15.50
2022-10-09T12:41:26.407Z,15.40
2022-10-09T12:43:56.584Z,15.40
2022-10-09T12:46:30.314Z,15.40
2022-10-09T12:48:59.707Z,15.30
2022-10-09T12:51:30.518Z,15.30
2022-10-09T12:53:58.550Z,15.30
2022-10-09T12:56:31.528Z,15.40
2022-10-09T12:59:00.730Z,15.30
2022-10-09T13:01:29.460Z,15.30
2022-10-09T13:03:59.137Z,15.30
2022-10-09T13:06:29.362Z,15.20
2022-10-09T13:09:02.737Z,15.10
2022-10-09T13:11:34.725Z,15.10
2022-10-09T13:14:02.977Z,15.20
2022-10-09T13:16:43.198Z,15.10
2022-10-09T13:19:25.889Z,15.10
2022-10-09T13:22:20.136Z,15.10
2022-10-09T13:24:51.001Z,15.00
2022-10-09T13:27:27.038Z,15.00
2022-10-09T13:29:55.508Z,14.90
2022-10-09T13:32:24.284Z,14.90
2022-10-09T13:34:55.789Z,14.90
2022-10-09T13:37:25.741Z,15.00
2022-10-09T13:39:56.431Z,15.10
2022-10-09T13:42:29.428Z,15.10
2022-10-09T13:44:57.528Z,15.10
2022-10-09T13:47:25.571Z,15.10
2022-10-09T13:49:53.617Z,15.10
2022-10-09T13:52:21.614Z,15.20
2022-10-09T13:54:51.483Z,15.30
2022-10-09T13:57:19.507Z,15.40
2022-10-09T13:59:48.935Z,15.40
2022-10-09T14:02:16.930Z,15.30
2022-10-09T14:04:44.973Z,15.20
2022-10-09T14:07:13.004Z,15.10
2022-10-09T14:09:42.800Z,15.00
2022-10-09T14:12:10.818Z,14.90
2022-10-09T14:14:38.810Z,14.80
2022-10-09T14:17:08.186Z,14.80
2022-10-09T14:19:38.586Z,14.70
2022-10-09T14:22:06.684Z,14.80
2022-10-09T14:24:34.836Z,14.80
2022-10-09T14:27:03.511Z,14.80
2022-10-09T14:29:31.806Z,14.80
2022-10-09T14:31:59.788Z,14.90
2022-10-09T14:34:29.212Z,14.90
2022-10-09T14:36:57.360Z,14.90
2022-10-09T14:39:25.352Z,15.00
2022-10-09T14:41:53.404Z,15.00
2022-10-09T14:44:21.439Z,14.90
2022-10-09T14:46:49.593Z,14.90
2022-10-09T14:49:17.627Z,15.00
2022-10-09T14:51:46.979Z,15.00
2022-10-09T14:54:15.089Z,14.90
2022-10-09T14:56:43.310Z,14.80
2022-10-09T14:59:11.303Z,14.60
2022-10-09T15:01:39.330Z,14.60
2022-10-09T15:04:07.607Z,14.50
2022-10-09T15:06:35.725Z,14.50
2022-10-09T15:09:08.786Z,14.40
2022-10-09T15:11:37.193Z,14.40
2022-10-09T15:14:06.496Z,14.30
2022-10-09T15:16:36.483Z,14.30
2022-10-09T15:19:05.693Z,14.30
2022-10-09T15:21:35.299Z,14.20
2022-10-09T15:24:06.108Z,14.20
2022-10-09T15:26:36.940Z,14.20
2022-10-09T15:29:07.541Z,14.20
2022-10-09T15:31:38.271Z,14.20
2022-10-09T15:34:08.045Z,14.30
2022-10-09T15:36:43.125Z,14.30
2022-10-09T15:39:12.619Z,14.30
2022-10-09T15:41:47.597Z,14.30
2022-10-09T15:44:17.806Z,14.20
2022-10-09T15:46:51.240Z,14.20
2022-10-09T15:49:19.828Z,14.30
2022-10-09T15:51:47.871Z,14.20
2022-10-09T15:54:17.599Z,14.10
2022-10-09T15:56:45.699Z,14.10
2022-10-09T15:59:16.697Z,14.00
2022-10-09T16:01:45.044Z,13.90
2022-10-09T16:04:15.845Z,13.90
2022-10-09T16:06:44.071Z,13.80
2022-10-09T16:09:15.088Z,13.70
2022-10-09T16:11:44.539Z,13.60
2022-10-09T16:14:13.053Z,13.50
2022-10-09T16:16:41.329Z,13.50
2022-10-09T16:19:09.404Z,13.40
2022-10-09T16:21:37.667Z,13.30
2022-10-09T16:24:07.828Z,13.30
2022-10-09T16:26:35.812Z,13.20
2022-10-09T16:29:05.298Z,13.10
2022-10-09T16:31:35.705Z,13.10
2022-10-09T16:34:05.511Z,13.00
2022-10-09T16:36:33.926Z,12.90
2022-10-09T16:39:02.003Z,12.80
2022-10-09T16:41:30.022Z,12.70
2022-10-09T16:44:01.443Z,12.60
2022-10-09T16:49:03.661Z,12.50
2022-10-09T16:51:33.939Z,12.40
2022-10-09T16:54:05.639Z,12.30
2022-10-09T16:56:36.225Z,12.20
2022-10-09T16:59:06.085Z,12.20
2022-10-09T17:01:39.314Z,12.00
2022-10-09T17:04:07.360Z,12.00
2022-10-09T17:06:35.677Z,11.90
2022-10-09T17:09:04.551Z,11.80
2022-10-09T17:11:32.736Z,11.70
2022-10-09T17:14:00.923Z,11.60
2022-10-09T17:16:31.564Z,11.60
2022-10-09T17:19:01.794Z,11.50
2022-10-09T17:21:34.152Z,11.50
2022-10-09T17:24:07.574Z,11.40
2022-10-09T17:26:38.382Z,11.30
2022-10-09T17:29:09.476Z,11.30
2022-10-09T17:31:59.037Z,11.20
2022-10-09T17:34:45.216Z,11.10
2022-10-09T17:37:15.503Z,11.00
2022-10-09T17:39:51.160Z,11.00
2022-10-09T17:42:35.716Z,10.90
2022-10-09T17:45:08.654Z,11.00
2022-10-09T17:47:44.690Z,11.00
2022-10-09T17:50:14.463Z,10.90
2022-10-09T17:52:48.935Z,10.90
2022-10-09T17:55:17.387Z,10.90
2022-10-09T17:57:45.487Z,10.80
2022-10-09T18:00:18.454Z,10.80
2022-10-09T18:02:49.364Z,10.80
2022-10-09T18:05:19.088Z,10.70
2022-10-09T18:07:47.762Z,10.50
2022-10-09T18:10:30.122Z,10.40
2022-10-09T18:13:00.015Z,10.50
2022-10-09T18:15:52.348Z,10.50
2022-10-09T18:18:22.330Z,10.60
2022-10-09T18:21:03.544Z,10.70
2022-10-09T18:23:42.953Z,10.70
2022-10-09T18:26:14.584Z,10.70
2022-10-09T18:28:44.816Z,10.70
2022-10-09T18:31:28.621Z,10.70
2022-10-09T18:33:58.417Z,10.60
2022-10-09T18:36:31.618Z,10.50
2022-10-09T18:39:01.792Z,10.50
2022-10-09T18:41:31.262Z,10.50
2022-10-09T18:44:20.877Z,10.50
2022-10-09T18:46:52.616Z,10.50
2022-10-09T18:49:37.095Z,10.50
2022-10-09T18:52:12.465Z,10.50
2022-10-09T18:54:42.207Z,10.50
2022-10-09T18:57:35.742Z,10.50
2022-10-09T19:00:02.665Z,10.50
2022-10-09T19:02:35.500Z,10.40
2022-10-09T19:05:04.003Z,10.20
2022-10-09T19:07:48.774Z,10.20
2022-10-09T19:10:17.304Z,10.10
2022-10-09T19:12:49.023Z,10.20
2022-10-09T19:15:17.412Z,10.20
2022-10-09T19:17:45.605Z,10.20
2022-10-09T19:20:13.717Z,10.20
2022-10-09T19:22:43.274Z,10.20
2022-10-09T19:25:12.000Z,10.00
2022-10-09T19:27:40.215Z,10.00
2022-10-09T19:30:11.206Z,10.00
2022-10-09T19:32:42.066Z,10.10
2022-10-09T19:35:10.508Z,10.00
2022-10-09T19:37:41.838Z,10.00
2022-10-09T19:40:11.667Z,10.10
2022-10-09T19:42:39.723Z,10.40
2022-10-09T19:45:34.106Z,10.60
2022-10-09T19:48:05.174Z,10.60
2022-10-09T19:50:36.522Z,10.50
2022-10-09T19:53:06.629Z,10.50
2022-10-09T19:56:08.060Z,10.50
2022-10-09T19:58:40.929Z,10.50
2022-10-09T20:01:10.619Z,10.50
2022-10-09T20:03:43.042Z,10.50
2022-10-09T20:06:20.556Z,10.50
2022-10-09T20:08:56.665Z,10.50
2022-10-09T20:11:29.032Z,10.40
2022-10-09T20:14:05.788Z,10.40
2022-10-09T20:16:38.039Z,10.30
2022-10-09T20:19:06.908Z,10.20
2022-10-09T20:21:38.791Z,10.20
2022-10-09T20:24:10.096Z,10.20
2022-10-09T20:26:48.483Z,10.20
2022-10-09T20:29:31.685Z,10.20
2022-10-09T20:32:07.684Z,10.30
2022-10-09T20:34:35.910Z,10.30
2022-10-09T20:37:11.666Z,10.40
2022-10-09T20:39:39.999Z,10.40
2022-10-09T20:42:17.430Z,10.50
2022-10-09T20:44:50.369Z,10.50
2022-10-09T20:47:26.185Z,10.60
2022-10-09T20:49:54.249Z,10.70
2022-10-09T20:52:28.576Z,10.70
2022-10-09T20:55:02.838Z,10.80
2022-10-09T20:57:32.638Z,10.90
2022-10-09T21:00:01.238Z,10.90
2022-10-09T21:02:35.256Z,11.00
2022-10-09T21:05:04.977Z,11.00
2022-10-09T21:07:36.963Z,11.00
2022-10-09T21:10:07.258Z,11.10
2022-10-09T21:12:37.379Z,11.10
2022-10-09T21:15:06.879Z,11.20
2022-10-09T21:17:35.187Z,11.30
2022-10-09T21:20:03.347Z,11.30
2022-10-09T21:22:34.753Z,11.30
2022-10-09T21:25:02.874Z,11.40
2022-10-09T21:27:33.793Z,11.40
2022-10-09T21:30:03.205Z,11.40
2022-10-09T21:32:31.176Z,11.40
2022-10-09T21:34:59.193Z,11.40
2022-10-09T21:37:27.163Z,11.40
2022-10-09T21:39:55.175Z,11.40
2022-10-09T21:42:23.476Z,11.50
2022-10-09T21:44:52.068Z,11.60
2022-10-09T21:47:34.433Z,11.60
2022-10-09T21:50:02.655Z,11.60
2022-10-09T21:52:32.632Z,11.60
2022-10-09T21:55:08.245Z,11.70
2022-10-09T21:57:40.303Z,11.70
2022-10-09T22:00:16.530Z,11.60
2022-10-09T22:02:46.039Z,11.60
2022-10-09T22:05:17.695Z,11.60
2022-10-09T22:07:51.635Z,11.60
2022-10-09T22:10:27.595Z,11.60
2022-10-09T22:12:55.956Z,11.50
2022-10-09T22:15:24.557Z,11.50
2022-10-09T22:17:54.269Z,11.60
2022-10-09T22:20:22.524Z,11.60
2022-10-09T22:22:51.172Z,11.50
2022-10-09T22:25:19.702Z,11.40
2022-10-09T22:27:53.877Z,11.30
2022-10-09T22:30:21.984Z,11.10
2022-10-09T22:32:50.491Z,11.00
2022-10-09T22:35:20.202Z,10.80
2022-10-09T22:37:51.095Z,10.60
2022-10-09T22:40:22.070Z,10.40
2022-10-09T22:42:50.337Z,10.30
2022-10-09T22:45:18.689Z,10.20
2022-10-09T22:47:48.389Z,10.10
2022-10-09T22:50:16.571Z,10.00
2022-10-09T22:52:48.250Z,10.00
2022-10-09T22:55:16.681Z,10.00
2022-10-09T22:57:44.852Z,10.00
2022-10-09T23:00:14.550Z,10.00
2022-10-09T23:02:44.966Z,10.10
2022-10-09T23:05:13.096Z,10.10
2022-10-09T23:07:41.418Z,10.10
2022-10-09T23:10:12.677Z,10.10
2022-10-09T23:12:40.955Z,10.10
2022-10-09T23:15:09.870Z,10.10
2022-10-09T23:17:38.339Z,10.30
2022-10-09T23:20:10.283Z,10.40
2022-10-09T23:22:39.689Z,10.40
2022-10-09T23:25:12.499Z,10.40
2022-10-09T23:27:40.504Z,10.40
2022-10-09T23:30:12.849Z,10.40
2022-10-09T23:32:40.948Z,10.40
2022-10-09T23:35:12.060Z,10.40
2022-10-09T23:37:42.495Z,10.60
2022-10-09T23:40:12.390Z,10.80
2022-10-09T23:42:40.461Z,10.80
2022-10-09T23:45:10.067Z,10.90
2022-10-09T23:47:38.146Z,11.10
2022-10-09T23:50:08.615Z,11.10
2022-10-09T23:52:36.986Z,11.00
2022-10-09T23:55:08.047Z,11.00
2022-10-09T23:57:37.637Z,10.90
